createdAt,value
2022-12-16T00:01:11.408Z,93794.81
2022-12-16T00:04:13.385Z,93805.88
2022-12-16T00:07:15.299Z,93800.75
2022-12-16T00:10:20.282Z,93785.72
2022-12-16T00:13:22.261Z,93781.47
2022-12-16T00:16:25.630Z,93795.44
2022-12-16T00:19:27.676Z,93808.13
2022-12-16T00:22:29.552Z,93805.97
2022-12-16T00:25:31.503Z,93811.03
2022-12-16T00:28:33.618Z,93819.91
2022-12-16T00:31:36.965Z,93811.63
2022-12-16T00:34:38.925Z,93826.75
2022-12-16T00:37:40.829Z,93820.78
2022-12-16T00:40:43.658Z,93821.19
2022-12-16T00:43:45.509Z,93832.13
2022-12-16T00:46:50.873Z,93844.88
2022-12-16T00:49:52.710Z,93839.72
2022-12-16T00:52:56.857Z,93849.16
2022-12-16T00:56:02.933Z,93840.84
2022-12-16T00:59:04.809Z,93850.53
2022-12-16T01:02:08.272Z,93850.53
2022-12-16T01:05:11.977Z,93851.13
2022-12-16T01:08:13.900Z,93839.81
2022-12-16T01:11:16.949Z,93837.56
2022-12-16T01:14:18.879Z,93837.69
2022-12-16T01:17:22.219Z,93842.81
2022-12-16T01:20:24.201Z,93848.91
2022-12-16T01:23:26.404Z,93846.31
2022-12-16T01:26:28.332Z,93837.50
2022-12-16T01:29:30.258Z,93817.16
2022-12-16T01:32:36.499Z,93827.19
2022-12-16T01:35:55.583Z,93838.44
2022-12-16T01:38:57.767Z,93834.66
2022-12-16T01:41:59.669Z,93824.69
2022-12-16T01:45:29.805Z,93827.41
2022-12-16T01:48:36.296Z,93830.25
2022-12-16T01:51:47.352Z,93828.00
2022-12-16T01:54:56.501Z,93826.53
2022-12-16T01:58:07.074Z,93840.28
2022-12-16T02:01:09.283Z,93849.09
2022-12-16T02:04:12.991Z,93850.72
2022-12-16T02:07:14.920Z,93858.16
2022-12-16T02:10:17.607Z,93864.50
2022-12-16T02:13:24.600Z,93868.13
2022-12-16T02:16:35.987Z,93872.66
2022-12-16T02:20:10.839Z,93875.53
2022-12-16T02:23:43.052Z,93880.13
2022-12-16T02:27:19.603Z,93877.72
2022-12-16T02:31:03.345Z,93879.28
2022-12-16T02:34:25.051Z,93885.41
2022-12-16T02:37:36.347Z,93881.91
2022-12-16T02:40:46.084Z,93873.69
2022-12-16T02:43:53.390Z,93875.22
2022-12-16T02:46:56.128Z,93882.59
2022-12-16T02:50:00.454Z,93889.63
2022-12-16T02:53:03.530Z,93884.91
2022-12-16T02:56:15.916Z,93894.69
2022-12-16T02:59:24.599Z,93904.50
2022-12-16T03:02:33.176Z,93914.56
2022-12-16T03:05:40.568Z,93915.97
2022-12-16T03:08:48.377Z,93917.34
2022-12-16T03:11:52.738Z,93919.66
2022-12-16T03:14:55.163Z,93935.53
2022-12-16T03:18:00.329Z,93926.38
2022-12-16T03:21:06.602Z,93930.75
2022-12-16T03:24:11.773Z,93932.69
2022-12-16T03:27:19.142Z,93944.94
2022-12-16T03:30:26.620Z,93944.84
2022-12-16T03:33:35.184Z,93941.78
2022-12-16T03:36:41.840Z,93938.88
2022-12-16T03:39:47.617Z,93936.28
2022-12-16T03:42:51.389Z,93948.44
2022-12-16T03:45:58.124Z,93949.53
2022-12-16T03:49:00.384Z,93948.78
2022-12-16T03:52:03.862Z,93949.53
2022-12-16T03:55:06.087Z,93958.97
2022-12-16T03:58:08.107Z,93960.50
2022-12-16T04:01:10.473Z,93961.63
2022-12-16T04:04:12.688Z,93964.72
2022-12-16T04:07:16.183Z,93966.00
2022-12-16T04:10:18.180Z,93973.09
2022-12-16T04:13:20.369Z,93976.16
2022-12-16T04:16:22.615Z,93974.97
2022-12-16T04:19:28.636Z,93977.69
2022-12-16T04:22:34.489Z,93979.56
2022-12-16T04:25:37.871Z,93981.88
2022-12-16T04:28:40.291Z,93987.09
2022-12-16T04:31:42.239Z,93993.16
2022-12-16T04:34:44.112Z,93995.28
2022-12-16T04:37:48.594Z,94000.94
2022-12-16T04:40:50.497Z,93995.28
2022-12-16T04:43:52.648Z,93997.88
2022-12-16T04:46:54.731Z,94006.25
2022-12-16T04:49:56.615Z,94006.94
2022-12-16T04:52:59.862Z,94007.81
2022-12-16T04:56:04.964Z,94014.75
2022-12-16T04:59:08.814Z,94009.09
2022-12-16T05:02:10.809Z,94010.53
2022-12-16T05:05:12.901Z,94015.69
2022-12-16T05:08:16.131Z,94020.38
2022-12-16T05:11:18.091Z,94024.66
2022-12-16T05:14:20.076Z,94034.13
2022-12-16T05:17:25.504Z,94028.56
2022-12-16T05:20:27.509Z,94029.31
2022-12-16T05:23:31.061Z,94024.44
2022-12-16T05:26:33.474Z,94036.94
2022-12-16T05:29:35.340Z,94029.66
2022-12-16T05:32:37.265Z,94034.91
2022-12-16T05:35:39.205Z,94043.72
2022-12-16T05:38:42.508Z,94040.34
2022-12-16T05:41:46.794Z,94052.50
2022-12-16T05:44:48.687Z,94054.81
2022-12-16T05:47:50.591Z,94062.09
2022-12-16T05:50:52.555Z,94075.00
2022-12-16T05:53:55.880Z,94079.56
2022-12-16T05:56:57.785Z,94076.16
2022-12-16T06:00:01.995Z,94076.22
2022-12-16T06:03:04.169Z,94077.19
2022-12-16T06:06:06.722Z,94075.97
2022-12-16T06:09:10.044Z,94077.94
2022-12-16T06:12:11.953Z,94079.72
2022-12-16T06:15:14.062Z,94092.31
2022-12-16T06:18:16.148Z,94099.16
2022-12-16T06:21:18.096Z,94101.84
2022-12-16T06:24:23.744Z,94114.41
2022-12-16T06:27:25.662Z,94108.25
2022-12-16T06:30:27.576Z,94125.19
2022-12-16T06:33:29.574Z,94130.94
2022-12-16T06:36:34.066Z,94133.00
2022-12-16T06:39:37.340Z,94126.13
2022-12-16T06:42:40.427Z,94125.44
2022-12-16T06:45:42.603Z,94136.47
2022-12-16T06:48:44.579Z,94141.47
2022-12-16T06:51:46.556Z,94149.44
2022-12-16T06:54:49.805Z,94171.06
2022-12-16T06:57:57.347Z,94180.91
2022-12-16T07:00:59.289Z,94180.50
2022-12-16T07:04:01.261Z,94180.91
2022-12-16T07:07:03.367Z,94193.50
2022-12-16T07:10:08.889Z,94207.19
2022-12-16T07:13:10.761Z,94203.44
2022-12-16T07:16:12.913Z,94207.53
2022-12-16T07:19:15.465Z,94214.63
2022-12-16T07:22:17.368Z,94215.16
2022-12-16T07:25:20.672Z,94221.25
2022-12-16T07:28:25.832Z,94227.41
2022-12-16T07:31:27.847Z,94233.16
2022-12-16T07:34:29.882Z,94247.00
2022-12-16T07:37:31.792Z,94247.78
2022-12-16T07:40:35.274Z,94241.47
2022-12-16T07:43:37.233Z,94240.06
2022-12-16T07:46:39.148Z,94250.69
2022-12-16T07:49:41.051Z,94258.84
2022-12-16T07:52:43.907Z,94272.53
2022-12-16T07:55:51.543Z,94276.81
2022-12-16T07:58:55.419Z,94287.34
2022-12-16T08:01:57.547Z,94276.72
2022-12-16T08:04:59.714Z,94291.38
2022-12-16T08:08:04.224Z,94297.03
2022-12-16T08:11:08.780Z,94295.31
2022-12-16T08:14:11.943Z,94305.09
2022-12-16T08:17:13.887Z,94300.97
2022-12-16T08:20:16.098Z,94307.81
2022-12-16T08:23:18.085Z,94305.78
2022-12-16T08:26:21.651Z,94318.78
2022-12-16T08:32:45.417Z,94332.75
2022-12-16T08:35:47.409Z,94337.28
2022-12-16T08:38:49.289Z,94339.28
2022-12-16T08:41:52.612Z,94342.00
2022-12-16T08:44:54.762Z,94350.75
2022-12-16T08:47:56.664Z,94358.63
2022-12-16T08:51:01.153Z,94374.75
2022-12-16T08:54:03.071Z,94376.63
2022-12-16T08:57:06.343Z,94376.72
2022-12-16T09:00:09.443Z,94381.94
2022-12-16T09:03:11.569Z,94379.28
2022-12-16T09:06:13.726Z,94393.66
2022-12-16T09:09:15.679Z,94394.53
2022-12-16T09:12:19.214Z,94391.00
2022-12-16T09:15:21.147Z,94400.97
2022-12-16T09:18:23.054Z,94404.38
2022-12-16T09:21:27.711Z,94414.69
2022-12-16T09:24:33.871Z,94404.81
2022-12-16T09:27:37.328Z,94409.03
2022-12-16T09:30:42.403Z,94405.94
2022-12-16T09:33:44.372Z,94400.63
2022-12-16T09:36:46.421Z,94408.94
2022-12-16T09:39:48.952Z,94413.13
2022-12-16T09:43:31.405Z,94409.78
2022-12-16T09:47:08.220Z,94403.78
2022-12-16T09:50:31.649Z,94406.44
2022-12-16T09:53:56.159Z,94423.59
2022-12-16T09:57:02.396Z,94427.34
2022-12-16T10:00:12.649Z,94427.78
2022-12-16T10:03:22.888Z,94432.66
2022-12-16T10:06:42.505Z,94434.31
2022-12-16T10:09:57.353Z,94432.91
2022-12-16T10:13:07.453Z,94438.91
2022-12-16T10:16:22.589Z,94439.25
2022-12-16T10:19:38.215Z,94437.03
2022-12-16T10:22:49.258Z,94448.84
2022-12-16T10:26:00.466Z,94447.09
2022-12-16T10:29:13.695Z,94454.78
2022-12-16T10:32:22.414Z,94457.31
2022-12-16T10:35:29.135Z,94458.31
2022-12-16T10:38:53.364Z,94453.00
2022-12-16T10:42:22.567Z,94457.63
2022-12-16T10:45:48.884Z,94460.81
2022-12-16T10:49:14.800Z,94453.63
2022-12-16T10:52:44.329Z,94456.38
2022-12-16T10:56:17.980Z,94462.22
2022-12-16T10:59:42.542Z,94459.66
2022-12-16T11:03:19.529Z,94461.97
2022-12-16T11:06:42.892Z,94459.06
2022-12-16T11:10:25.102Z,94465.13
2022-12-16T11:13:34.050Z,94467.44
2022-12-16T11:16:40.405Z,94462.84
2022-12-16T11:20:07.642Z,94457.84
2022-12-16T11:23:25.021Z,94464.69
2022-12-16T11:26:52.470Z,94461.38
2022-12-16T11:29:57.048Z,94468.91
2022-12-16T11:33:02.734Z,94473.03
2022-12-16T11:36:13.692Z,94471.13
2022-12-16T11:39:20.332Z,94461.81
2022-12-16T11:42:27.717Z,94472.88
2022-12-16T11:45:32.352Z,94477.41
2022-12-16T11:48:40.878Z,94477.94
2022-12-16T11:51:45.237Z,94482.13
2022-12-16T11:54:57.545Z,94477.66
2022-12-16T11:58:09.152Z,94486.06
2022-12-16T12:01:17.052Z,94482.13
2022-12-16T12:04:19.831Z,94487.88
2022-12-16T12:07:27.609Z,94490.09
2022-12-16T12:10:45.470Z,94492.41
2022-12-16T12:13:58.604Z,94496.19
2022-12-16T12:17:11.073Z,94495.94
2022-12-16T12:20:34.571Z,94490.63
2022-12-16T12:23:51.503Z,94496.03
2022-12-16T12:27:02.041Z,94492.59
2022-12-16T12:30:16.626Z,94498.78
2022-12-16T12:33:30.891Z,94502.63
2022-12-16T12:36:44.472Z,94502.53
2022-12-16T12:39:52.339Z,94507.44
2022-12-16T12:42:56.887Z,94506.81
2022-12-16T12:46:07.264Z,94514.69
2022-12-16T12:49:16.427Z,94515.41
2022-12-16T12:52:23.444Z,94521.09
2022-12-16T12:55:33.252Z,94523.75
2022-12-16T12:58:39.152Z,94531.13
2022-12-16T13:01:43.290Z,94537.56
2022-12-16T13:04:47.981Z,94539.97
2022-12-16T13:07:49.826Z,94544.06
2022-12-16T13:11:12.296Z,94549.22
2022-12-16T13:14:55.556Z,94559.56
2022-12-16T13:18:20.995Z,94549.91
2022-12-16T13:21:47.887Z,94564.41
2022-12-16T13:24:50.921Z,94564.75
2022-12-16T13:27:58.151Z,94570.94
2022-12-16T13:31:05.010Z,94570.22
2022-12-16T13:34:20.400Z,94560.66
2022-12-16T13:37:33.646Z,94568.28
2022-12-16T13:40:56.762Z,94574.31
2022-12-16T13:43:59.466Z,94582.16
2022-12-16T13:47:02.631Z,94587.13
2022-12-16T13:50:39.039Z,94601.59
2022-12-16T13:53:46.317Z,94592.88
2022-12-16T13:56:49.885Z,94601.81
2022-12-16T13:59:51.973Z,94608.69
2022-12-16T14:02:57.672Z,94623.41
2022-12-16T14:06:01.587Z,94621.59
2022-12-16T14:09:04.319Z,94624.69
2022-12-16T14:12:15.541Z,94638.47
2022-12-16T14:15:26.811Z,94630.47
2022-12-16T14:18:43.740Z,94629.03
2022-12-16T14:21:53.716Z,94641.84
2022-12-16T14:25:02.204Z,94649.06
2022-12-16T14:28:14.701Z,94650.16
2022-12-16T14:31:21.223Z,94657.03
2022-12-16T14:34:25.858Z,94656.78
2022-12-16T14:37:34.309Z,94664.09
2022-12-16T14:40:36.128Z,94671.19
2022-12-16T14:43:43.682Z,94677.25
2022-12-16T14:46:50.664Z,94679.81
2022-12-16T14:49:54.778Z,94672.84
2022-12-16T14:53:12.745Z,94691.97
2022-12-16T14:56:18.770Z,94703.25
2022-12-16T14:59:21.147Z,94706.34
2022-12-16T15:02:30.722Z,94705.47
2022-12-16T15:05:38.081Z,94712.75
2022-12-16T15:08:49.382Z,94715.94
2022-12-16T15:11:55.293Z,94719.84
2022-12-16T15:14:57.946Z,94725.53
2022-12-16T15:18:02.506Z,94733.91
2022-12-16T15:21:09.644Z,94731.00
2022-12-16T15:24:17.676Z,94740.22
2022-12-16T15:27:28.744Z,94740.31
2022-12-16T15:30:35.806Z,94740.50
2022-12-16T15:33:39.188Z,94741.75
2022-12-16T15:36:45.865Z,94753.19
2022-12-16T15:39:47.729Z,94753.06
2022-12-16T15:42:52.694Z,94754.72
2022-12-16T15:45:54.550Z,94762.00
2022-12-16T15:48:56.480Z,94759.16
2022-12-16T15:52:00.767Z,94760.59
2022-12-16T15:55:02.629Z,94769.78
2022-12-16T15:58:13.213Z,94780.97
2022-12-16T16:01:18.748Z,94780.28
2022-12-16T16:04:24.453Z,94788.13
2022-12-16T16:07:27.727Z,94795.13
2022-12-16T16:10:29.696Z,94795.56
2022-12-16T16:13:31.868Z,94793.38
2022-12-16T16:16:34.022Z,94805.78
2022-12-16T16:19:35.810Z,94806.53
2022-12-16T16:22:38.994Z,94806.84
2022-12-16T16:25:40.874Z,94810.34
2022-12-16T16:28:42.988Z,94810.97
2022-12-16T16:31:46.670Z,94811.66
2022-12-16T16:34:48.515Z,94816.66
2022-12-16T16:37:51.772Z,94820.22
2022-12-16T16:40:53.575Z,94830.63
2022-12-16T16:43:57.000Z,94828.75
2022-12-16T16:46:59.588Z,94827.34
2022-12-16T16:50:02.206Z,94830.13
2022-12-16T16:53:05.464Z,94832.19
2022-12-16T16:56:13.791Z,94838.97
2022-12-16T16:59:21.354Z,94842.91
2022-12-16T17:02:24.517Z,94842.47
2022-12-16T17:05:26.463Z,94844.47
2022-12-16T17:08:29.634Z,94851.41
2022-12-16T17:11:33.025Z,94856.31
2022-12-16T17:14:34.847Z,94858.72
2022-12-16T17:17:36.725Z,94866.41
2022-12-16T17:20:38.542Z,94864.28
2022-12-16T17:23:44.118Z,94875.72
2022-12-16T17:26:45.968Z,94878.97
2022-12-16T17:29:47.904Z,94883.09
2022-12-16T17:32:51.586Z,94887.78
2022-12-16T17:35:53.366Z,94892.75
2022-12-16T17:38:56.801Z,94896.09
2022-12-16T17:42:00.211Z,94894.00
2022-12-16T17:45:02.132Z,94901.09
2022-12-16T17:48:04.483Z,94903.72
2022-12-16T17:51:06.325Z,94916.97
2022-12-16T17:54:19.700Z,94918.66
2022-12-16T17:57:27.344Z,94922.50
2022-12-16T18:00:29.199Z,94932.72
2022-12-16T18:03:31.341Z,94927.88
2022-12-16T18:06:33.700Z,94932.13
2022-12-16T18:09:40.799Z,94937.41
2022-12-16T18:12:43.148Z,94943.59
2022-12-16T18:15:52.199Z,94943.44
2022-12-16T18:18:54.164Z,94948.09
2022-12-16T18:21:56.720Z,94953.88
2022-12-16T18:25:00.446Z,94960.84
2022-12-16T18:28:05.895Z,94958.94
2022-12-16T18:31:07.916Z,94953.78
2022-12-16T18:34:09.830Z,94964.19
2022-12-16T18:37:14.620Z,94966.56
2022-12-16T18:40:19.508Z,94967.66
2022-12-16T18:43:24.166Z,94974.19
2022-12-16T18:46:26.601Z,94983.22
2022-12-16T18:49:29.223Z,94985.25
2022-12-16T18:52:32.716Z,94983.22
2022-12-16T18:55:37.425Z,94980.78
2022-12-16T18:58:54.859Z,94987.47
2022-12-16T19:01:57.302Z,94995.56
2022-12-16T19:05:00.656Z,94995.44
2022-12-16T19:08:02.718Z,94994.97
2022-12-16T19:11:06.092Z,95002.59
2022-12-16T19:14:09.456Z,95004.00
2022-12-16T19:17:11.695Z,95010.94
2022-12-16T19:20:13.826Z,95018.13
2022-12-16T19:23:16.571Z,95016.91
2022-12-16T19:26:21.984Z,95016.31
2022-12-16T19:29:30.759Z,95026.56
2022-12-16T19:32:35.152Z,95033.41
2022-12-16T19:35:44.875Z,95041.22
2022-12-16T19:38:48.606Z,95038.09
2022-12-16T19:41:53.487Z,95040.75
2022-12-16T19:44:59.315Z,95045.59
2022-12-16T19:48:01.923Z,95052.59
2022-12-16T19:51:06.444Z,95063.22
2022-12-16T19:54:08.738Z,95065.56
2022-12-16T19:57:14.170Z,95062.00
2022-12-16T20:00:16.631Z,95067.00
2022-12-16T20:03:19.521Z,95068.53
2022-12-16T20:06:22.497Z,95071.78
2022-12-16T20:09:25.078Z,95076.94
2022-12-16T20:12:31.874Z,95083.97
2022-12-16T20:15:35.028Z,95087.53
2022-12-16T20:18:37.916Z,95083.16
2022-12-16T20:21:42.221Z,95095.78
2022-12-16T20:24:45.286Z,95089.56
2022-12-16T20:27:50.132Z,95086.44
2022-12-16T20:30:52.384Z,95105.78
2022-12-16T20:34:02.727Z,95104.34
2022-12-16T20:37:05.775Z,95107.81
2022-12-16T20:40:09.675Z,95115.28
2022-12-16T20:43:13.938Z,95129.63
2022-12-16T20:46:16.542Z,95137.72
2022-12-16T20:49:20.239Z,95140.06
2022-12-16T20:52:23.101Z,95136.78
2022-12-16T20:55:25.647Z,95140.34
2022-12-16T20:58:29.744Z,95147.38
2022-12-16T21:01:32.627Z,95152.84
2022-12-16T21:04:35.001Z,95160.31
2022-12-16T21:07:37.600Z,95166.25
2022-12-16T21:10:39.953Z,95169.50
2022-12-16T21:13:43.886Z,95173.09
2022-12-16T21:16:46.532Z,95170.13
2022-12-16T21:19:49.701Z,95174.03
2022-12-16T21:22:59.062Z,95184.78
2022-12-16T21:26:01.040Z,95183.22
2022-12-16T21:29:15.882Z,95192.13
2022-12-16T21:32:18.111Z,95194.91
2022-12-16T21:35:20.706Z,95197.09
2022-12-16T21:38:23.356Z,95195.53
2022-12-16T21:41:26.632Z,95202.41
2022-12-16T21:44:30.330Z,95210.69
2022-12-16T21:47:32.674Z,95219.72
2022-12-16T21:50:35.843Z,95223.00
2022-12-16T21:53:38.110Z,95222.53
2022-12-16T21:56:40.507Z,95225.31
2022-12-16T21:59:44.160Z,95229.06
2022-12-16T22:02:46.340Z,95233.16
2022-12-16T22:05:48.668Z,95237.97
2022-12-16T22:08:51.777Z,95242.66
2022-12-16T22:11:54.008Z,95251.22
2022-12-16T22:15:00.177Z,95255.13
2022-12-16T22:18:08.748Z,95251.53
2022-12-16T22:21:12.008Z,95255.44
2022-12-16T22:24:14.464Z,95263.38
2022-12-16T22:27:16.952Z,95272.56
2022-12-16T22:30:20.567Z,95266.34
2022-12-16T22:33:22.765Z,95272.88
2022-12-16T22:36:24.990Z,95272.09
2022-12-16T22:39:27.138Z,95273.34
2022-12-16T22:42:29.443Z,95271.19
2022-12-16T22:45:34.216Z,95277.44
2022-12-16T22:48:39.289Z,95283.81
2022-12-16T22:51:42.426Z,95286.47
2022-12-16T22:54:50.390Z,95289.72
2022-12-16T22:57:54.233Z,95289.91
2022-12-16T23:00:57.877Z,95296.09
2022-12-16T23:04:00.140Z,95296.06
2022-12-16T23:07:02.338Z,95299.13
2022-12-16T23:10:05.311Z,95297.56
2022-12-16T23:13:10.535Z,95294.47
2022-12-16T23:16:15.782Z,95300.81
2022-12-16T23:19:17.941Z,95303.34
2022-12-16T23:22:20.169Z,95309.41
2022-12-16T23:25:22.340Z,95301.09
2022-12-16T23:28:24.667Z,95301.41
2022-12-16T23:31:28.851Z,95309.78
2022-12-16T23:34:31.476Z,95311.97
2022-12-16T23:37:33.328Z,95306.97
2022-12-16T23:40:35.219Z,95314.16
2022-12-16T23:43:37.193Z,95319.88
2022-12-16T23:46:40.676Z,95328.59
2022-12-16T23:49:42.608Z,95329.06
2022-12-16T23:52:44.439Z,95334.19
2022-12-16T23:55:46.344Z,95329.66
2022-12-16T23:58:48.374Z,95340.41
